sensor_id;sensor_type;location;lat;lon;timestamp;pressure;altitude;pressure_sealevel;temperature;humidity
66560;BME280;53413;49.878;8.142;2024-01-16T00:00:31;99318.94;;;-0.49;100.00
66560;BME280;53413;49.878;8.142;2024-01-16T00:02:56;99317.25;;;-0.58;100.00
66560;BME280;53413;49.878;8.142;2024-01-16T00:05:21;99327.59;;;-0.64;100.00
66560;BME280;53413;49.878;8.142;2024-01-16T00:07:47;99322.47;;;-0.72;100.00
66560;BME280;53413;49.878;8.142;2024-01-16T00:10:12;99328.47;;;-0.76;100.00
66560;BME280;53413;49.878;8.142;2024-01-16T00:12:37;99323.34;;;-0.76;100.00
66560;BME280;53413;49.878;8.142;2024-01-16T00:15:05;99329.34;;;-0.71;100.00
66560;BME280;53413;49.878;8.142;2024-01-16T00:17:31;99327.59;;;-0.67;100.00
66560;BME280;53413;49.878;8.142;2024-01-16T00:19:56;99331.03;;;-0.62;100.00
66560;BME280;53413;49.878;8.142;2024-01-16T00:22:28;99337.81;;;-0.45;100.00
66560;BME280;53413;49.878;8.142;2024-01-16T00:24:53;99336.88;;;-0.27;100.00
66560;BME280;53413;49.878;8.142;2024-01-16T00:27:19;99341.06;;;-0.09;100.00
66560;BME280;53413;49.878;8.142;2024-01-16T00:29:44;99336.72;;;0.04;100.00
66560;BME280;53413;49.878;8.142;2024-01-16T00:32:10;99342.66;;;0.09;100.00
66560;BME280;53413;49.878;8.142;2024-01-16T00:34:35;99351.34;;;-0.03;99.93
66560;BME280;53413;49.878;8.142;2024-01-16T00:37:01;99338.56;;;-0.20;100.00
66560;BME280;53413;49.878;8.142;2024-01-16T00:39:26;99342.06;;;-0.34;100.00
66560;BME280;53413;49.878;8.142;2024-01-16T00:41:52;99335.22;;;-0.45;100.00
66560;BME280;53413;49.878;8.142;2024-01-16T00:44:17;99335.25;;;-0.53;100.00
66560;BME280;53413;49.878;8.142;2024-01-16T00:46:42;99328.44;;;-0.60;100.00
66560;BME280;53413;49.878;8.142;2024-01-16T00:49:08;99332.75;;;-0.64;100.00
66560;BME280;53413;49.878;8.142;2024-01-16T00:51:33;99331.03;;;-0.73;100.00
66560;BME280;53413;49.878;8.142;2024-01-16T00:53:59;99340.47;;;-0.78;100.00
66560;BME280;53413;49.878;8.142;2024-01-16T00:56:27;99335.38;;;-0.84;100.00
66560;BME280;53413;49.878;8.142;2024-01-16T00:58:53;99335.38;;;-0.87;100.00
66560;BME280;53413;49.878;8.142;2024-01-16T01:01:19;99345.69;;;-0.90;100.00
66560;BME280;53413;49.878;8.142;2024-01-16T01:03:45;99338.84;;;-0.95;100.00
66560;BME280;53413;49.878;8.142;2024-01-16T01:06:10;99343.97;;;-0.98;100.00
66560;BME280;53413;49.878;8.142;2024-01-16T01:08:36;99345.72;;;-1.15;100.00
66560;BME280;53413;49.878;8.142;2024-01-16T01:11:01;99353.44;;;-1.25;100.00
66560;BME280;53413;49.878;8.142;2024-01-16T01:13:27;99351.72;;;-1.30;100.00
66560;BME280;53413;49.878;8.142;2024-01-16T01:15:53;99359.44;;;-1.35;100.00
66560;BME280;53413;49.878;8.142;2024-01-16T01:18:18;99366.28;;;-1.42;100.00
66560;BME280;53413;49.878;8.142;2024-01-16T01:20:44;99368.88;;;-1.45;100.00
66560;BME280;53413;49.878;8.142;2024-01-16T01:23:09;99365.44;;;-1.48;100.00
66560;BME280;53413;49.878;8.142;2024-01-16T01:25:35;99368.00;;;-1.48;100.00
66560;BME280;53413;49.878;8.142;2024-01-16T01:28:00;99372.31;;;-1.50;100.00
66560;BME280;53413;49.878;8.142;2024-01-16T01:30:25;99373.16;;;-1.51;100.00
66560;BME280;53413;49.878;8.142;2024-01-16T01:32:51;99378.28;;;-1.53;100.00
66560;BME280;53413;49.878;8.142;2024-01-16T01:35:17;99374.00;;;-1.54;100.00
66560;BME280;53413;49.878;8.142;2024-01-16T01:37:42;99376.56;;;-1.54;100.00
66560;BME280;53413;49.878;8.142;2024-01-16T01:40:08;99374.00;;;-1.54;100.00
66560;BME280;53413;49.878;8.142;2024-01-16T01:42:34;99378.28;;;-1.53;100.00
66560;BME280;53413;49.878;8.142;2024-01-16T01:44:59;99393.69;;;-1.55;100.00
66560;BME280;53413;49.878;8.142;2024-01-16T01:47:24;99385.13;;;-1.52;100.00
66560;BME280;53413;49.878;8.142;2024-01-16T01:49:51;99377.44;;;-1.52;100.00
66560;BME280;53413;49.878;8.142;2024-01-16T01:52:16;99389.41;;;-1.51;100.00
66560;BME280;53413;49.878;8.142;2024-01-16T01:54:42;99392.00;;;-1.52;100.00
66560;BME280;53413;49.878;8.142;2024-01-16T01:57:08;99388.56;;;-1.53;100.00
66560;BME280;53413;49.878;8.142;2024-01-16T01:59:33;99398.84;;;-1.58;100.00
66560;BME280;53413;49.878;8.142;2024-01-16T02:01:59;99403.97;;;-1.62;100.00
66560;BME280;53413;49.878;8.142;2024-01-16T02:04:26;99403.97;;;-1.65;100.00
66560;BME280;53413;49.878;8.142;2024-01-16T02:06:51;99409.09;;;-1.67;100.00
66560;BME280;53413;49.878;8.142;2024-01-16T02:09:17;99411.66;;;-1.67;100.00
66560;BME280;53413;49.878;8.142;2024-01-16T02:11:43;99409.94;;;-1.68;100.00
66560;BME280;53413;49.878;8.142;2024-01-16T02:14:09;99421.09;;;-1.66;100.00
66560;BME280;53413;49.878;8.142;2024-01-16T02:16:39;99421.13;;;-1.63;100.00
66560;BME280;53413;49.878;8.142;2024-01-16T02:19:05;99426.25;;;-1.58;100.00
66560;BME280;53413;49.878;8.142;2024-01-16T02:21:53;99421.97;;;-1.55;100.00
66560;BME280;53413;49.878;8.142;2024-01-16T02:24:20;99416.84;;;-1.50;100.00
66560;BME280;53413;49.878;8.142;2024-01-16T02:26:46;99412.53;;;-1.46;100.00
66560;BME280;53413;49.878;8.142;2024-01-16T02:29:12;99407.41;;;-1.46;100.00
66560;BME280;53413;49.878;8.142;2024-01-16T02:31:37;99403.97;;;-1.48;100.00
66560;BME280;53413;49.878;8.142;2024-01-16T02:34:03;99409.97;;;-1.49;100.00
66560;BME280;53413;49.878;8.142;2024-01-16T02:36:32;99408.28;;;-1.50;100.00
66560;BME280;53413;49.878;8.142;2024-01-16T02:38:57;99410.00;;;-1.48;100.00
66560;BME280;53413;49.878;8.142;2024-01-16T02:41:23;99406.53;;;-1.48;100.00
66560;BME280;53413;49.878;8.142;2024-01-16T02:43:48;99412.53;;;-1.49;100.00
66560;BME280;53413;49.878;8.142;2024-01-16T02:46:14;99409.13;;;-1.50;100.00
66560;BME280;53413;49.878;8.142;2024-01-16T02:48:40;99414.28;;;-1.51;100.00
66560;BME280;53413;49.878;8.142;2024-01-16T02:51:07;99421.13;;;-1.53;100.00
66560;BME280;53413;49.878;8.142;2024-01-16T02:53:33;99421.97;;;-1.55;100.00
66560;BME280;53413;49.878;8.142;2024-01-16T02:55:59;99429.66;;;-1.53;100.00
66560;BME280;53413;49.878;8.142;2024-01-16T02:58:26;99428.81;;;-1.47;100.00
66560;BME280;53413;49.878;8.142;2024-01-16T03:00:51;99434.84;;;-1.39;100.00
66560;BME280;53413;49.878;8.142;2024-01-16T03:03:17;99425.41;;;-1.29;100.00
66560;BME280;53413;49.878;8.142;2024-01-16T03:05:43;99431.41;;;-1.13;100.00
66560;BME280;53413;49.878;8.142;2024-01-16T03:08:08;99427.16;;;-0.97;100.00
66560;BME280;53413;49.878;8.142;2024-01-16T03:10:33;99427.09;;;-0.79;100.00
66560;BME280;53413;49.878;8.142;2024-01-16T03:12:59;99418.50;;;-0.60;100.00
66560;BME280;53413;49.878;8.142;2024-01-16T03:15:24;99420.16;;;-0.45;100.00
66560;BME280;53413;49.878;8.142;2024-01-16T03:17:50;99411.56;;;-0.30;100.00
66560;BME280;53413;49.878;8.142;2024-01-16T03:20:16;99405.47;;;-0.17;100.00
66560;BME280;53413;49.878;8.142;2024-01-16T03:22:41;99415.72;;;-0.05;100.00
66560;BME280;53413;49.878;8.142;2024-01-16T03:25:08;99414.84;;;0.01;100.00
66560;BME280;53413;49.878;8.142;2024-01-16T03:27:34;99407.97;;;0.06;100.00
66560;BME280;53413;49.878;8.142;2024-01-16T03:30:01;99420.78;;;0.17;100.00
66560;BME280;53413;49.878;8.142;2024-01-16T03:32:26;99427.56;;;0.30;100.00
66560;BME280;53413;49.878;8.142;2024-01-16T03:34:52;99432.69;;;0.38;100.00
66560;BME280;53413;49.878;8.142;2024-01-16T03:37:17;99434.34;;;0.44;100.00
66560;BME280;53413;49.878;8.142;2024-01-16T03:39:42;99442.94;;;0.49;100.00
66560;BME280;53413;49.878;8.142;2024-01-16T03:42:12;99442.91;;;0.52;100.00
66560;BME280;53413;49.878;8.142;2024-01-16T03:44:40;99442.09;;;0.47;100.00
66560;BME280;53413;49.878;8.142;2024-01-16T03:47:06;99441.22;;;0.45;99.98
66560;BME280;53413;49.878;8.142;2024-01-16T03:49:32;99443.84;;;0.40;99.70
66560;BME280;53413;49.878;8.142;2024-01-16T03:51:58;99437.84;;;0.37;99.84
66560;BME280;53413;49.878;8.142;2024-01-16T03:54:23;99442.19;;;0.27;100.00
66560;BME280;53413;49.878;8.142;2024-01-16T03:56:48;99437.06;;;0.22;100.00
66560;BME280;53413;49.878;8.142;2024-01-16T03:59:14;99435.38;;;0.13;100.00
66560;BME280;53413;49.878;8.142;2024-01-16T04:01:39;99438.88;;;0.03;100.00
66560;BME280;53413;49.878;8.142;2024-01-16T04:04:10;99421.75;;;-0.04;100.00
66560;BME280;53413;49.878;8.142;2024-01-16T04:06:35;99424.34;;;-0.12;100.00
66560;BME280;53413;49.878;8.142;2024-01-16T04:09:01;99419.22;;;-0.20;100.00
66560;BME280;53413;49.878;8.142;2024-01-16T04:11:26;99422.69;;;-0.25;100.00
66560;BME280;53413;49.878;8.142;2024-01-16T04:13:52;99422.72;;;-0.32;100.00
66560;BME280;53413;49.878;8.142;2024-01-16T04:16:17;99432.16;;;-0.35;100.00
66560;BME280;53413;49.878;8.142;2024-01-16T04:18:43;99430.44;;;-0.38;100.00
66560;BME280;53413;49.878;8.142;2024-01-16T04:21:09;99421.91;;;-0.43;100.00
66560;BME280;53413;49.878;8.142;2024-01-16T04:23:34;99427.03;;;-0.49;100.00
66560;BME280;53413;49.878;8.142;2024-01-16T04:26:00;99428.78;;;-0.54;100.00
66560;BME280;53413;49.878;8.142;2024-01-16T04:28:25;99426.22;;;-0.64;100.00
66560;BME280;53413;49.878;8.142;2024-01-16T04:30:51;99431.38;;;-0.68;100.00
66560;BME280;53413;49.878;8.142;2024-01-16T04:33:17;99434.81;;;-0.74;100.00
66560;BME280;53413;49.878;8.142;2024-01-16T04:35:42;99429.69;;;-0.80;100.00
66560;BME280;53413;49.878;8.142;2024-01-16T04:38:10;99425.41;;;-0.80;100.00
66560;BME280;53413;49.878;8.142;2024-01-16T04:40:35;99437.38;;;-0.77;100.00
66560;BME280;53413;49.878;8.142;2024-01-16T04:43:01;99427.94;;;-0.75;100.00
66560;BME280;53413;49.878;8.142;2024-01-16T04:45:27;99435.69;;;-0.73;100.00
66560;BME280;53413;49.878;8.142;2024-01-16T04:47:53;99441.69;;;-0.70;100.00
66560;BME280;53413;49.878;8.142;2024-01-16T04:50:18;99438.25;;;-0.72;100.00
66560;BME280;53413;49.878;8.142;2024-01-16T04:52:44;99433.09;;;-0.75;100.00
66560;BME280;53413;49.878;8.142;2024-01-16T04:55:10;99430.53;;;-0.75;100.00
66560;BME280;53413;49.878;8.142;2024-01-16T04:57:35;99425.41;;;-0.73;100.00
66560;BME280;53413;49.878;8.142;2024-01-16T05:00:00;99424.53;;;-0.71;100.00
66560;BME280;53413;49.878;8.142;2024-01-16T05:02:26;99415.97;;;-0.67;100.00
66560;BME280;53413;49.878;8.142;2024-01-16T05:04:51;99418.53;;;-0.67;100.00
66560;BME280;53413;49.878;8.142;2024-01-16T05:07:20;99413.38;;;-0.67;100.00
66560;BME280;53413;49.878;8.142;2024-01-16T05:09:46;99402.22;;;-0.72;100.00
66560;BME280;53413;49.878;8.142;2024-01-16T05:12:12;99406.53;;;-0.80;100.00
66560;BME280;53413;49.878;8.142;2024-01-16T05:14:37;99399.69;;;-0.89;100.00
66560;BME280;53413;49.878;8.142;2024-01-16T05:17:03;99393.72;;;-0.97;100.00
66560;BME280;53413;49.878;8.142;2024-01-16T05:19:28;99399.69;;;-1.04;100.00
66560;BME280;53413;49.878;8.142;2024-01-16T05:21:57;99399.69;;;-1.12;100.00
66560;BME280;53413;49.878;8.142;2024-01-16T05:24:22;99395.44;;;-1.21;100.00
66560;BME280;53413;49.878;8.142;2024-01-16T05:26:47;99389.41;;;-1.29;100.00
66560;BME280;53413;49.878;8.142;2024-01-16T05:29:13;99399.72;;;-1.34;100.00
66560;BME280;53413;49.878;8.142;2024-01-16T05:31:41;99392.84;;;-1.38;100.00
66560;BME280;53413;49.878;8.142;2024-01-16T05:34:07;99387.72;;;-1.44;100.00
66560;BME280;53413;49.878;8.142;2024-01-16T05:36:33;99390.28;;;-1.50;100.00
66560;BME280;53413;49.878;8.142;2024-01-16T05:38:58;99397.97;;;-1.55;100.00
66560;BME280;53413;49.878;8.142;2024-01-16T05:41:23;99399.66;;;-1.62;100.00
66560;BME280;53413;49.878;8.142;2024-01-16T05:43:49;99403.09;;;-1.71;100.00
66560;BME280;53413;49.878;8.142;2024-01-16T05:46:14;99403.09;;;-1.78;100.00
66560;BME280;53413;49.878;8.142;2024-01-16T05:48:40;99391.06;;;-1.86;100.00
66560;BME280;53413;49.878;8.142;2024-01-16T05:51:05;99389.34;;;-1.91;100.00
66560;BME280;53413;49.878;8.142;2024-01-16T05:53:30;99379.06;;;-1.97;100.00
66560;BME280;53413;49.878;8.142;2024-01-16T05:55:56;99379.94;;;-2.00;100.00
66560;BME280;53413;49.878;8.142;2024-01-16T05:58:21;99379.03;;;-2.04;100.00
66560;BME280;53413;49.878;8.142;2024-01-16T06:00:48;99384.16;;;-2.08;100.00
66560;BME280;53413;49.878;8.142;2024-01-16T06:03:14;99378.16;;;-2.10;100.00
66560;BME280;53413;49.878;8.142;2024-01-16T06:05:39;99376.44;;;-2.13;100.00
66560;BME280;53413;49.878;8.142;2024-01-16T06:08:05;99372.16;;;-2.14;100.00
66560;BME280;53413;49.878;8.142;2024-01-16T06:10:30;99377.31;;;-2.14;100.00
66560;BME280;53413;49.878;8.142;2024-01-16T06:12:56;99378.19;;;-2.13;100.00
66560;BME280;53413;49.878;8.142;2024-01-16T06:15:21;99371.34;;;-2.11;100.00
66560;BME280;53413;49.878;8.142;2024-01-16T06:17:46;99378.16;;;-2.10;100.00
66560;BME280;53413;49.878;8.142;2024-01-16T06:20:12;99373.91;;;-2.08;100.00
66560;BME280;53413;49.878;8.142;2024-01-16T06:22:37;99378.19;;;-2.07;100.00
66560;BME280;53413;49.878;8.142;2024-01-16T06:25:05;99376.47;;;-2.05;100.00
66560;BME280;53413;49.878;8.142;2024-01-16T06:27:31;99369.63;;;-2.06;100.00
66560;BME280;53413;49.878;8.142;2024-01-16T06:29:57;99378.19;;;-2.03;100.00
66560;BME280;53413;49.878;8.142;2024-01-16T06:32:22;99371.38;;;-2.02;100.00
66560;BME280;53413;49.878;8.142;2024-01-16T06:34:47;99379.94;;;-2.00;100.00
66560;BME280;53413;49.878;8.142;2024-01-16T06:37:12;99373.91;;;-2.01;100.00
66560;BME280;53413;49.878;8.142;2024-01-16T06:39:38;99367.09;;;-1.98;100.00
66560;BME280;53413;49.878;8.142;2024-01-16T06:42:05;99367.94;;;-1.98;100.00
66560;BME280;53413;49.878;8.142;2024-01-16T06:44:30;99366.22;;;-1.96;100.00
66560;BME280;53413;49.878;8.142;2024-01-16T06:46:56;99362.84;;;-1.93;100.00
66560;BME280;53413;49.878;8.142;2024-01-16T06:49:21;99354.25;;;-1.95;100.00
66560;BME280;53413;49.878;8.142;2024-01-16T06:51:46;99355.97;;;-1.96;100.00
66560;BME280;53413;49.878;8.142;2024-01-16T06:54:12;99353.41;;;-1.97;100.00
66560;BME280;53413;49.878;8.142;2024-01-16T06:56:37;99359.38;;;-1.97;100.00
66560;BME280;53413;49.878;8.142;2024-01-16T06:59:02;99362.81;;;-1.95;100.00
66560;BME280;53413;49.878;8.142;2024-01-16T07:01:28;99362.81;;;-1.95;100.00
66560;BME280;53413;49.878;8.142;2024-01-16T07:03:53;99361.13;;;-1.90;100.00
66560;BME280;53413;49.878;8.142;2024-01-16T07:06:19;99361.97;;;-1.84;100.00
66560;BME280;53413;49.878;8.142;2024-01-16T07:08:44;99360.28;;;-1.81;100.00
66560;BME280;53413;49.878;8.142;2024-01-16T07:11:10;99370.56;;;-1.76;100.00
66560;BME280;53413;49.878;8.142;2024-01-16T07:13:38;99369.69;;;-1.72;100.00
66560;BME280;53413;49.878;8.142;2024-01-16T07:16:04;99368.00;;;-1.68;100.00
66560;BME280;53413;49.878;8.142;2024-01-16T07:18:29;99373.13;;;-1.61;100.00
66560;BME280;53413;49.878;8.142;2024-01-16T07:20:54;99377.44;;;-1.49;100.00
66560;BME280;53413;49.878;8.142;2024-01-16T07:23:20;99375.72;;;-1.39;100.00
66560;BME280;53413;49.878;8.142;2024-01-16T07:25:45;99371.44;;;-1.31;100.00
66560;BME280;53413;49.878;8.142;2024-01-16T07:28:10;99379.13;;;-1.25;100.00
66560;BME280;53413;49.878;8.142;2024-01-16T07:30:36;99387.72;;;-1.15;100.00
66560;BME280;53413;49.878;8.142;2024-01-16T07:33:02;99390.28;;;-1.07;100.00
66560;BME280;53413;49.878;8.142;2024-01-16T07:35:28;99385.97;;;-0.99;100.00
66560;BME280;53413;49.878;8.142;2024-01-16T07:37:53;99382.53;;;-0.90;100.00
66560;BME280;53413;49.878;8.142;2024-01-16T07:40:18;99387.66;;;-0.81;100.00
66560;BME280;53413;49.878;8.142;2024-01-16T07:42:44;99381.66;;;-0.75;100.00
66560;BME280;53413;49.878;8.142;2024-01-16T07:45:09;99383.38;;;-0.68;100.00
66560;BME280;53413;49.878;8.142;2024-01-16T07:47:35;99375.59;;;-0.60;100.00
66560;BME280;53413;49.878;8.142;2024-01-16T07:50:01;99377.31;;;-0.50;100.00
66560;BME280;53413;49.878;8.142;2024-01-16T07:52:27;99378.09;;;-0.37;100.00
66560;BME280;53413;49.878;8.142;2024-01-16T07:54:53;99383.22;;;-0.27;100.00
66560;BME280;53413;49.878;8.142;2024-01-16T07:57:18;99384.06;;;-0.19;100.00
66560;BME280;53413;49.878;8.142;2024-01-16T07:59:44;99388.28;;;-0.09;99.89
66560;BME280;53413;49.878;8.142;2024-01-16T08:02:09;99389.09;;;-0.01;99.04
66560;BME280;53413;49.878;8.142;2024-01-16T08:04:35;99392.50;;;0.09;98.88
66560;BME280;53413;49.878;8.142;2024-01-16T08:07:00;99390.69;;;0.19;98.58
66560;BME280;53413;49.878;8.142;2024-01-16T08:09:25;99400.09;;;0.29;97.86
66560;BME280;53413;49.878;8.142;2024-01-16T08:11:51;99398.31;;;0.41;97.84
66560;BME280;53413;49.878;8.142;2024-01-16T08:14:16;99410.22;;;0.54;96.78
66560;BME280;53413;49.878;8.142;2024-01-16T08:16:42;99404.16;;;0.65;95.87
66560;BME280;53413;49.878;8.142;2024-01-16T08:19:07;99411.84;;;0.71;95.29
66560;BME280;53413;49.878;8.142;2024-01-16T08:21:33;99420.38;;;0.81;94.75
66560;BME280;53413;49.878;8.142;2024-01-16T08:23:58;99421.97;;;0.92;93.47
66560;BME280;53413;49.878;8.142;2024-01-16T08:26:23;99426.28;;;0.92;93.36
66560;BME280;53413;49.878;8.142;2024-01-16T08:28:49;99421.88;;;1.05;92.92
66560;BME280;53413;49.878;8.142;2024-01-16T08:31:16;99435.63;;;1.04;92.43
66560;BME280;53413;49.878;8.142;2024-01-16T08:33:43;99432.84;;;1.29;92.22
66560;BME280;53413;49.878;8.142;2024-01-16T08:36:08;99427.22;;;1.71;91.64
66560;BME280;53413;49.878;8.142;2024-01-16T08:38:33;99437.09;;;2.11;89.83
66560;BME280;53413;49.878;8.142;2024-01-16T08:40:59;99439.22;;;2.46;88.19
66560;BME280;53413;49.878;8.142;2024-01-16T08:43:24;99426.69;;;3.28;85.23
66560;BME280;53413;49.878;8.142;2024-01-16T08:45:49;99423.88;;;3.41;83.63
66560;BME280;53413;49.878;8.142;2024-01-16T08:48:15;99434.50;;;3.25;83.16
66560;BME280;53413;49.878;8.142;2024-01-16T08:50:41;99429.38;;;3.22;82.85
66560;BME280;53413;49.878;8.142;2024-01-16T08:53:07;99428.19;;;2.90;83.90
66560;BME280;53413;49.878;8.142;2024-01-16T08:55:32;99436.41;;;2.60;84.20
66560;BME280;53413;49.878;8.142;2024-01-16T08:57:57;99432.34;;;2.45;84.32
66560;BME280;53413;49.878;8.142;2024-01-16T09:00:23;99434.00;;;2.48;84.63
66560;BME280;53413;49.878;8.142;2024-01-16T09:02:48;99441.59;;;2.59;84.65
66560;BME280;53413;49.878;8.142;2024-01-16T09:05:14;99433.69;;;2.70;84.53
66560;BME280;53413;49.878;8.142;2024-01-16T09:07:40;99419.81;;;2.75;84.41
66560;BME280;53413;49.878;8.142;2024-01-16T09:10:06;99431.75;;;2.83;84.71
66560;BME280;53413;49.878;8.142;2024-01-16T09:12:32;99432.31;;;3.03;83.89
66560;BME280;53413;49.878;8.142;2024-01-16T09:14:58;99421.41;;;3.34;84.14
66560;BME280;53413;49.878;8.142;2024-01-16T09:17:23;99420.06;;;3.60;82.94
66560;BME280;53413;49.878;8.142;2024-01-16T09:19:50;99423.72;;;3.94;82.12
66560;BME280;53413;49.878;8.142;2024-01-16T09:22:16;99425.06;;;4.51;80.31
66560;BME280;53413;49.878;8.142;2024-01-16T09:24:42;99430.19;;;4.92;78.04
66560;BME280;53413;49.878;8.142;2024-01-16T09:27:07;99432.28;;;5.12;77.36
66560;BME280;53413;49.878;8.142;2024-01-16T09:29:35;99426.81;;;6.76;74.58
66560;BME280;53413;49.878;8.142;2024-01-16T09:32:00;99423.63;;;9.08;68.58
66560;BME280;53413;49.878;8.142;2024-01-16T09:34:25;99422.59;;;10.32;62.44
66560;BME280;53413;49.878;8.142;2024-01-16T09:36:51;99418.44;;;10.84;58.67
66560;BME280;53413;49.878;8.142;2024-01-16T09:39:16;99425.44;;;10.27;58.61
66560;BME280;53413;49.878;8.142;2024-01-16T09:41:42;99445.47;;;8.85;60.51
66560;BME280;53413;49.878;8.142;2024-01-16T09:44:08;99443.72;;;7.68;62.92
66560;BME280;53413;49.878;8.142;2024-01-16T09:46:34;99436.19;;;7.84;63.70
66560;BME280;53413;49.878;8.142;2024-01-16T09:49:02;99435.09;;;8.38;62.25
66560;BME280;53413;49.878;8.142;2024-01-16T09:51:28;99433.09;;;8.44;62.20
66560;BME280;53413;49.878;8.142;2024-01-16T09:53:56;99435.19;;;7.89;62.66
66560;BME280;53413;49.878;8.142;2024-01-16T09:56:22;99443.94;;;7.37;64.06
66560;BME280;53413;49.878;8.142;2024-01-16T09:59:03;99448.00;;;6.92;65.03
66560;BME280;53413;49.878;8.142;2024-01-16T10:01:30;99444.59;;;6.63;66.18
66560;BME280;53413;49.878;8.142;2024-01-16T10:03:57;99442.13;;;6.58;66.43
66560;BME280;53413;49.878;8.142;2024-01-16T10:06:23;99441.13;;;6.62;66.53
66560;BME280;53413;49.878;8.142;2024-01-16T10:08:49;99438.13;;;6.48;66.25
66560;BME280;53413;49.878;8.142;2024-01-16T10:11:14;99447.84;;;6.41;66.29
66560;BME280;53413;49.878;8.142;2024-01-16T10:13:40;99445.50;;;6.32;66.12
66560;BME280;53413;49.878;8.142;2024-01-16T10:16:06;99447.41;;;6.27;66.00
66560;BME280;53413;49.878;8.142;2024-01-16T10:18:32;99454.63;;;5.85;66.22
66560;BME280;53413;49.878;8.142;2024-01-16T10:20:59;99450.91;;;5.63;67.70
66560;BME280;53413;49.878;8.142;2024-01-16T10:23:29;99438.97;;;5.55;68.14
66560;BME280;53413;49.878;8.142;2024-01-16T10:28:33;99426.75;;;5.26;67.89
66560;BME280;53413;49.878;8.142;2024-01-16T10:31:08;99431.91;;;5.28;68.37
66560;BME280;53413;49.878;8.142;2024-01-16T10:33:34;99417.88;;;5.35;68.85
66560;BME280;53413;49.878;8.142;2024-01-16T10:36:12;99421.13;;;5.42;67.99
66560;BME280;53413;49.878;8.142;2024-01-16T10:38:42;99424.34;;;5.51;67.86
66560;BME280;53413;49.878;8.142;2024-01-16T10:43:35;99422.91;;;5.41;67.70
66560;BME280;53413;49.878;8.142;2024-01-16T10:46:14;99429.94;;;5.36;68.10
66560;BME280;53413;49.878;8.142;2024-01-16T10:48:44;99418.66;;;5.37;68.18
66560;BME280;53413;49.878;8.142;2024-01-16T10:51:19;99412.31;;;5.47;68.45
66560;BME280;53413;49.878;8.142;2024-01-16T10:53:45;99400.34;;;5.42;68.80
66560;BME280;53413;49.878;8.142;2024-01-16T10:56:14;99400.34;;;5.42;68.29
66560;BME280;53413;49.878;8.142;2024-01-16T10:58:43;99392.03;;;5.29;67.44
66560;BME280;53413;49.878;8.142;2024-01-16T11:01:15;99384.16;;;5.32;67.75
66560;BME280;53413;49.878;8.142;2024-01-16T11:03:48;99390.75;;;5.44;67.68
66560;BME280;53413;49.878;8.142;2024-01-16T11:06:15;99376.41;;;5.62;68.36
66560;BME280;53413;49.878;8.142;2024-01-16T11:08:41;99372.84;;;5.66;67.61
66560;BME280;53413;49.878;8.142;2024-01-16T11:11:08;99366.97;;;5.59;67.75
66560;BME280;53413;49.878;8.142;2024-01-16T11:13:34;99378.19;;;5.61;67.38
66560;BME280;53413;49.878;8.142;2024-01-16T11:16:02;99378.03;;;5.34;67.62
66560;BME280;53413;49.878;8.142;2024-01-16T11:18:30;99365.63;;;5.13;68.38
66560;BME280;53413;49.878;8.142;2024-01-16T11:20:56;99369.81;;;4.84;68.52
66560;BME280;53413;49.878;8.142;2024-01-16T11:23:23;99379.88;;;4.61;69.15
66560;BME280;53413;49.878;8.142;2024-01-16T11:25:48;99370.69;;;4.46;69.62
66560;BME280;53413;49.878;8.142;2024-01-16T11:28:14;99366.56;;;4.39;69.49
66560;BME280;53413;49.878;8.142;2024-01-16T11:30:42;99360.44;;;4.42;69.47
66560;BME280;53413;49.878;8.142;2024-01-16T11:35:59;99349.22;;;4.40;68.88
66560;BME280;53413;49.878;8.142;2024-01-16T11:38:25;99330.47;;;4.30;69.09
66560;BME280;53413;49.878;8.142;2024-01-16T11:40:54;99323.59;;;4.27;69.39
66560;BME280;53413;49.878;8.142;2024-01-16T11:45:58;99327.88;;;4.65;68.49
66560;BME280;53413;49.878;8.142;2024-01-16T11:48:24;99318.63;;;4.89;67.86
66560;BME280;53413;49.878;8.142;2024-01-16T11:50:50;99325.56;;;5.21;67.39
66560;BME280;53413;49.878;8.142;2024-01-16T11:53:31;99316.16;;;5.47;66.17
66560;BME280;53413;49.878;8.142;2024-01-16T12:01:50;99311.28;;;5.66;64.88
66560;BME280;53413;49.878;8.142;2024-01-16T12:04:17;99312.38;;;5.59;64.53
66560;BME280;53413;49.878;8.142;2024-01-16T12:06:56;99310.22;;;5.44;64.71
66560;BME280;53413;49.878;8.142;2024-01-16T12:09:26;99306.44;;;5.24;65.34
66560;BME280;53413;49.878;8.142;2024-01-16T12:12:00;99311.28;;;5.05;65.27
66560;BME280;53413;49.878;8.142;2024-01-16T12:14:29;99309.75;;;4.98;65.72
66560;BME280;53413;49.878;8.142;2024-01-16T12:17:13;99306.16;;;5.02;65.04
66560;BME280;53413;49.878;8.142;2024-01-16T12:19:39;99310.25;;;5.11;65.24
66560;BME280;53413;49.878;8.142;2024-01-16T12:22:12;99302.00;;;5.28;64.12
66560;BME280;53413;49.878;8.142;2024-01-16T12:24:38;99304.50;;;5.62;63.87
66560;BME280;53413;49.878;8.142;2024-01-16T12:27:04;99295.78;;;5.93;63.38
66560;BME280;53413;49.878;8.142;2024-01-16T12:29:30;99279.91;;;6.31;62.10
66560;BME280;53413;49.878;8.142;2024-01-16T12:32:25;99282.03;;;6.45;61.46
66560;BME280;53413;49.878;8.142;2024-01-16T12:34:52;99280.69;;;6.60;61.27
66560;BME280;53413;49.878;8.142;2024-01-16T12:37:17;99271.66;;;6.70;61.25
66560;BME280;53413;49.878;8.142;2024-01-16T12:39:43;99264.97;;;6.63;61.33
66560;BME280;53413;49.878;8.142;2024-01-16T12:42:09;99264.97;;;6.63;60.91
66560;BME280;53413;49.878;8.142;2024-01-16T12:44:35;99256.41;;;6.59;60.85
66560;BME280;53413;49.878;8.142;2024-01-16T12:47:01;99257.09;;;6.65;61.00
66560;BME280;53413;49.878;8.142;2024-01-16T12:49:27;99254.63;;;6.61;60.96
66560;BME280;53413;49.878;8.142;2024-01-16T12:52:19;99251.56;;;6.49;60.88
66560;BME280;53413;49.878;8.142;2024-01-16T12:54:46;99255.28;;;6.41;61.23
66560;BME280;53413;49.878;8.142;2024-01-16T12:57:19;99256.44;;;6.32;61.02
66560;BME280;53413;49.878;8.142;2024-01-16T12:59:46;99251.56;;;6.22;61.10
66560;BME280;53413;49.878;8.142;2024-01-16T13:02:19;99240.63;;;6.12;61.19
66560;BME280;53413;49.878;8.142;2024-01-16T13:04:46;99232.53;;;5.93;61.33
66560;BME280;53413;49.878;8.142;2024-01-16T13:07:16;99237.31;;;5.78;61.99
66560;BME280;53413;49.878;8.142;2024-01-16T13:09:41;99244.34;;;5.75;62.19